Flight Track Log - Related Links

Times and Time Zones

All times are in EDT time to prevent confusion due to time zone crossing. See the EJA396 flight status page for this flight to view local times or setup timezone preferences in your user account.

Time Position Orientation Groundspeed Altitude Reporting Facility
EDT Latitude Longitude Course Direction KTS MPH feet Rate Location/Type
Fri 11:17:23 AM 36.0747 -115.1714 205° Southwest 153 176 3,200  Level Los Center
Fri 11:18:24 AM 36.0208 -115.2022 205° Southwest 213 245 5,700 1,964 Climbing Los Center
Fri 11:19:13 AM 35.9925 -115.2508 234° Southwest 235 270 6,800 1,297 Climbing Los Center
Fri 11:20:15 AM 35.9244 -115.3072 214° Southwest 258 297 8,100 2,177 Climbing Los Center
Fri 11:21:17 AM 35.8472 -115.3153 185° South 269 310 11,300 3,286 Climbing Los Center
Fri 11:22:21 AM 35.7581 -115.3044 174° South 310 357 15,000 3,328 Climbing Los Center
Fri 11:23:34 AM 35.6594 -115.3181 186° South 313 360 18,900 2,711 Climbing Los Center
Fri 11:24:36 AM 35.5950 -115.4050 228° Southwest 335 386 21,100 1,500 Climbing Los Center
Fri 11:25:38 AM 35.5264 -115.4997 228° Southwest 358 412 22,000 435 Climbing Los Center
Fri 11:26:40 AM 35.4472 -115.6067 228° Southwest 394 453 22,000  Level Los Center
Fri 11:27:42 AM 35.3722 -115.7053 227° Southwest 395 455 22,000  Level Los Center
Fri 11:28:44 AM 35.2989 -115.8039 228° Southwest 392 451 22,000  Level Los Center
Fri 11:29:47 AM 35.2114 -115.9203 227° Southwest 388 447 22,000  Level Los Center
Fri 11:30:49 AM 35.1372 -116.0167 227° Southwest 388 447 22,000  Level Los Center
Fri 11:31:51 AM 35.0631 -116.1131 227° Southwest 390 449 22,000  Level Los Center
Fri 11:32:53 AM 34.9881 -116.2111 227° Southwest 391 450 22,000 -242 Level Los Center
Fri 11:33:55 AM 34.9219 -116.3158 232° Southwest 397 457 21,500 -919 Descending Los Center
Fri 11:34:57 AM 34.8972 -116.4500 257° West 405 466 20,100 -726 Descending Los Center
Fri 11:35:59 AM 34.8736 -116.6094 260° West 400 460 20,000 -48 Descending Los Center
Fri 11:37:01 AM 34.8522 -116.7425 259° West 401 461 20,000  Level Los Center
Fri 11:38:03 AM 34.8303 -116.8772 259° West 404 465 20,000  Level Los Center
Fri 11:39:05 AM 34.8081 -117.0108 259° West 403 464 20,000 -288 Level Los Center
Fri 11:40:08 AM 34.7861 -117.1436 259° West 400 460 19,400 -1,056 Descending Los Center
Fri 11:41:10 AM 34.7642 -117.2708 258° West 386 444 17,800 -1,500 Descending Los Center
Fri 11:42:12 AM 34.7444 -117.3947 259° West 375 432 16,300 -1,597 Descending Los Center
Fri 11:43:14 AM 34.7131 -117.5422 256° West 374 430 14,500 -1,355 Descending Los Center
Fri 11:44:16 AM 34.6797 -117.6589 251° West 367 422 13,500 -1,016 Descending Los Center
Fri 11:45:18 AM 34.6486 -117.7733 252° West 357 411 12,400 -1,065 Descending Los Center
Fri 11:46:20 AM 34.6172 -117.8875 252° West 355 409 11,300 -968 Descending Los Center
Fri 11:47:22 AM 34.5900 -117.9875 252° West 311 358 10,400 -823 Descending Los Center
Fri 11:48:24 AM 34.5642 -118.0758 250° West 283 326 9,600 -864 Descending Los Center
Fri 11:49:27 AM 34.5358 -118.1742 251° West 280 322 8,600 -768 Descending Los Center
Fri 11:50:29 AM 34.5086 -118.2622 249° West 278 320 8,000 -290 Descending Los Center
Fri 11:51:31 AM 34.4478 -118.3089 212° Southwest 269 310 8,000 -194 Level Los Center
Fri 11:52:33 AM 34.3606 -118.3286 191° South 265 305 7,600 -484 Descending Los Center
Fri 11:53:35 AM 34.2917 -118.3411 189° South 253 291 7,000 -581 Descending Los Center
Fri 11:54:37 AM 34.2331 -118.3156 160° South 230 265 6,400 -581 Descending Los Center
Fri 11:55:39 AM 34.1797 -118.2886 157° South 214 246 5,800 -1,065 Descending Los Center
Fri 11:56:41 AM 34.1306 -118.3000 191° South 192 221 4,200 -1,597 Descending Los Center
Fri 11:57:43 AM 34.0942 -118.3467 227° Southwest 169 194 2,500 -1,065 Descending Los Center
Fri 11:58:45 AM 34.0714 -118.3828 233° Southwest 146 168 2,000 -624 Descending Los Center
Fri 11:59:48 AM 34.0472 -118.4122 225° Southwest 132 152 1,200 -768 Descending Los Center
Fri 12:00:50 PM 34.0253 -118.4406 227° Southwest 124 143 400 -774 Descending Los Center
Fri 12:02:00 PM 34.0158 -118.4513 244° Southwest  Level Estimated

Login

Don't have an account? Register now (free) for customized features, flight alerts, and more!